sensor_id;sensor_type;location;lat;lon;timestamp;pressure;altitude;pressure_sealevel;temperature;humidity
50282;BME280;36176;51.506;10.272;2023-04-07T00:01:39;99541.53;;;2.24;66.22
50282;BME280;36176;51.506;10.272;2023-04-07T00:04:06;99539.06;;;2.13;66.40
50282;BME280;36176;51.506;10.272;2023-04-07T00:06:33;99534.88;;;1.97;67.21
50282;BME280;36176;51.506;10.272;2023-04-07T00:09:00;99532.41;;;1.85;68.00
50282;BME280;36176;51.506;10.272;2023-04-07T00:11:27;99533.41;;;1.73;67.71
50282;BME280;36176;51.506;10.272;2023-04-07T00:13:54;99542.22;;;1.61;68.15
50282;BME280;36176;51.506;10.272;2023-04-07T00:16:22;99538.84;;;1.50;68.29
50282;BME280;36176;51.506;10.272;2023-04-07T00:18:49;99538.03;;;1.43;68.68
50282;BME280;36176;51.506;10.272;2023-04-07T00:21:16;99534.63;;;1.37;68.59
50282;BME280;36176;51.506;10.272;2023-04-07T00:23:43;99533.78;;;1.32;69.63
50282;BME280;36176;51.506;10.272;2023-04-07T00:26:10;99532.97;;;1.26;69.66
50282;BME280;36176;51.506;10.272;2023-04-07T00:28:37;99535.63;;;1.19;69.75
50282;BME280;36176;51.506;10.272;2023-04-07T00:31:04;99527.81;;;1.17;70.09
50282;BME280;36176;51.506;10.272;2023-04-07T00:33:31;99532.16;;;1.20;69.80
50282;BME280;36176;51.506;10.272;2023-04-07T00:35:58;99529.56;;;1.20;70.18
50282;BME280;36176;51.506;10.272;2023-04-07T00:38:25;99525.19;;;1.19;70.74
50282;BME280;36176;51.506;10.272;2023-04-07T00:40:59;99524.34;;;1.17;71.49
50282;BME280;36176;51.506;10.272;2023-04-07T00:43:26;99522.66;;;1.11;70.34
50282;BME280;36176;51.506;10.272;2023-04-07T00:45:53;99520.13;;;1.02;71.07
50282;BME280;36176;51.506;10.272;2023-04-07T00:48:20;99522.78;;;0.93;71.00
50282;BME280;36176;51.506;10.272;2023-04-07T00:50:47;99521.06;;;0.89;71.17
50282;BME280;36176;51.506;10.272;2023-04-07T00:53:15;99512.44;;;0.82;71.96
50282;BME280;36176;51.506;10.272;2023-04-07T00:55:42;99513.38;;;0.73;72.24
50282;BME280;36176;51.506;10.272;2023-04-07T00:58:09;99509.94;;;0.70;72.68
50282;BME280;36176;51.506;10.272;2023-04-07T01:00:43;99517.72;;;0.71;73.13
50282;BME280;36176;51.506;10.272;2023-04-07T01:03:17;99510.78;;;0.70;72.87
50282;BME280;36176;51.506;10.272;2023-04-07T01:06:00;99503.84;;;0.66;72.60
50282;BME280;36176;51.506;10.272;2023-04-07T01:08:47;99502.16;;;0.59;72.77
50282;BME280;36176;51.506;10.272;2023-04-07T01:11:34;99503.94;;;0.52;73.24
50282;BME280;36176;51.506;10.272;2023-04-07T01:14:03;99504.88;;;0.44;73.31
50282;BME280;36176;51.506;10.272;2023-04-07T01:16:35;99511.00;;;0.36;72.56
50282;BME280;36176;51.506;10.272;2023-04-07T01:19:36;99510.16;;;0.30;73.72
50282;BME280;36176;51.506;10.272;2023-04-07T01:22:10;99499.75;;;0.20;73.78
50282;BME280;36176;51.506;10.272;2023-04-07T01:25:05;99505.88;;;0.13;74.56
50282;BME280;36176;51.506;10.272;2023-04-07T01:30:18;99496.41;;;-0.03;73.58
50282;BME280;36176;51.506;10.272;2023-04-07T01:32:49;99499.88;;;-0.10;75.10
50282;BME280;36176;51.506;10.272;2023-04-07T01:35:18;99499.94;;;-0.18;74.83
50282;BME280;36176;51.506;10.272;2023-04-07T01:37:46;99503.41;;;-0.25;74.57
50282;BME280;36176;51.506;10.272;2023-04-07T01:40:15;99499.09;;;-0.29;74.88
50282;BME280;36176;51.506;10.272;2023-04-07T01:42:43;99491.28;;;-0.31;75.28
50282;BME280;36176;51.506;10.272;2023-04-07T01:45:12;99491.31;;;-0.35;75.92
50282;BME280;36176;51.506;10.272;2023-04-07T01:47:40;99489.56;;;-0.39;75.08
50282;BME280;36176;51.506;10.272;2023-04-07T01:50:09;99498.25;;;-0.42;76.36
50282;BME280;36176;51.506;10.272;2023-04-07T01:52:38;99495.66;;;-0.47;76.70
50282;BME280;36176;51.506;10.272;2023-04-07T01:55:06;99501.72;;;-0.51;76.70
50282;BME280;36176;51.506;10.272;2023-04-07T01:57:33;99497.44;;;-0.55;76.50
50282;BME280;36176;51.506;10.272;2023-04-07T02:00:00;99500.91;;;-0.62;76.81
50282;BME280;36176;51.506;10.272;2023-04-07T02:02:27;99500.88;;;-0.65;76.73
50282;BME280;36176;51.506;10.272;2023-04-07T02:04:57;99500.91;;;-0.68;77.58
50282;BME280;36176;51.506;10.272;2023-04-07T02:07:45;99497.44;;;-0.69;78.27
50282;BME280;36176;51.506;10.272;2023-04-07T02:10:14;99492.25;;;-0.72;76.98
50282;BME280;36176;51.506;10.272;2023-04-07T02:12:44;99499.19;;;-0.71;77.84
50282;BME280;36176;51.506;10.272;2023-04-07T02:15:14;99497.47;;;-0.76;77.24
50282;BME280;36176;51.506;10.272;2023-04-07T02:17:45;99495.72;;;-0.77;77.97
50282;BME280;36176;51.506;10.272;2023-04-07T02:20:15;99494.84;;;-0.81;78.57
50282;BME280;36176;51.506;10.272;2023-04-07T02:22:43;99500.94;;;-0.85;78.42
50282;BME280;36176;51.506;10.272;2023-04-07T02:25:27;99499.19;;;-0.84;79.08
50282;BME280;36176;51.506;10.272;2023-04-07T02:27:56;99494.84;;;-0.87;78.16
50282;BME280;36176;51.506;10.272;2023-04-07T02:30:24;99494.00;;;-0.92;77.85
50282;BME280;36176;51.506;10.272;2023-04-07T02:32:52;99492.28;;;-0.93;78.82
50282;BME280;36176;51.506;10.272;2023-04-07T02:35:19;99489.66;;;-0.96;78.91
50282;BME280;36176;51.506;10.272;2023-04-07T02:37:46;99487.06;;;-1.04;79.33
50282;BME280;36176;51.506;10.272;2023-04-07T02:40:14;99492.25;;;-1.07;80.22
50282;BME280;36176;51.506;10.272;2023-04-07T02:42:41;99494.84;;;-1.05;79.74
50282;BME280;36176;51.506;10.272;2023-04-07T02:45:09;99492.25;;;-1.07;80.40
50282;BME280;36176;51.506;10.272;2023-04-07T02:47:37;99493.13;;;-1.07;80.43
50282;BME280;36176;51.506;10.272;2023-04-07T02:50:05;99493.97;;;-1.06;79.75
50282;BME280;36176;51.506;10.272;2023-04-07T02:52:32;99489.66;;;-1.09;80.56
50282;BME280;36176;51.506;10.272;2023-04-07T02:54:59;99489.69;;;-1.10;80.16
50282;BME280;36176;51.506;10.272;2023-04-07T02:57:26;99500.06;;;-1.12;80.39
50282;BME280;36176;51.506;10.272;2023-04-07T03:00:07;99493.97;;;-1.15;80.82
50282;BME280;36176;51.506;10.272;2023-04-07T03:02:35;99488.78;;;-1.17;80.08
50282;BME280;36176;51.506;10.272;2023-04-07T03:05:02;99493.97;;;-1.20;80.00
50282;BME280;36176;51.506;10.272;2023-04-07T03:07:30;99496.56;;;-1.23;79.90
50282;BME280;36176;51.506;10.272;2023-04-07T03:09:57;99495.72;;;-1.23;80.87
50282;BME280;36176;51.506;10.272;2023-04-07T03:12:24;99490.53;;;-1.23;79.89
50282;BME280;36176;51.506;10.272;2023-04-07T03:14:51;99496.59;;;-1.26;80.58
50282;BME280;36176;51.506;10.272;2023-04-07T03:17:18;99487.94;;;-1.26;80.83
50282;BME280;36176;51.506;10.272;2023-04-07T03:19:46;99490.53;;;-1.26;81.04
50282;BME280;36176;51.506;10.272;2023-04-07T03:22:13;99487.03;;;-1.30;81.11
50282;BME280;36176;51.506;10.272;2023-04-07T03:24:39;99486.19;;;-1.31;81.34
50282;BME280;36176;51.506;10.272;2023-04-07T03:27:06;99486.16;;;-1.32;81.47
50282;BME280;36176;51.506;10.272;2023-04-07T03:29:33;99481.84;;;-1.38;81.80
50282;BME280;36176;51.506;10.272;2023-04-07T03:32:00;99483.56;;;-1.40;81.67
50282;BME280;36176;51.506;10.272;2023-04-07T03:34:27;99479.25;;;-1.41;81.76
50282;BME280;36176;51.506;10.272;2023-04-07T03:36:54;99482.72;;;-1.43;82.22
50282;BME280;36176;51.506;10.272;2023-04-07T03:39:21;99480.09;;;-1.45;82.38
50282;BME280;36176;51.506;10.272;2023-04-07T03:41:48;99481.81;;;-1.47;83.25
50282;BME280;36176;51.506;10.272;2023-04-07T03:44:15;99480.94;;;-1.49;83.44
50282;BME280;36176;51.506;10.272;2023-04-07T03:46:42;99478.34;;;-1.49;84.00
50282;BME280;36176;51.506;10.272;2023-04-07T03:49:11;99475.75;;;-1.49;83.60
50282;BME280;36176;51.506;10.272;2023-04-07T03:51:38;99467.13;;;-1.48;83.48
50282;BME280;36176;51.506;10.272;2023-04-07T03:54:05;99467.09;;;-1.50;83.06
50282;BME280;36176;51.506;10.272;2023-04-07T03:56:32;99467.09;;;-1.51;84.06
50282;BME280;36176;51.506;10.272;2023-04-07T03:58:59;99467.09;;;-1.51;83.49
50282;BME280;36176;51.506;10.272;2023-04-07T04:01:26;99474.03;;;-1.52;83.84
50282;BME280;36176;51.506;10.272;2023-04-07T04:03:53;99475.75;;;-1.54;83.66
50282;BME280;36176;51.506;10.272;2023-04-07T04:06:21;99474.03;;;-1.55;82.82
50282;BME280;36176;51.506;10.272;2023-04-07T04:08:48;99474.88;;;-1.60;83.09
50282;BME280;36176;51.506;10.272;2023-04-07T04:11:15;99476.63;;;-1.62;83.73
50282;BME280;36176;51.506;10.272;2023-04-07T04:13:42;99479.19;;;-1.64;84.02
50282;BME280;36176;51.506;10.272;2023-04-07T04:16:09;99476.59;;;-1.67;83.87
50282;BME280;36176;51.506;10.272;2023-04-07T04:18:37;99473.97;;;-1.70;83.66
50282;BME280;36176;51.506;10.272;2023-04-07T04:21:04;99472.25;;;-1.79;83.35
50282;BME280;36176;51.506;10.272;2023-04-07T04:23:31;99473.97;;;-1.81;83.42
50282;BME280;36176;51.506;10.272;2023-04-07T04:25:58;99481.75;;;-1.82;83.02
50282;BME280;36176;51.506;10.272;2023-04-07T04:28:25;99474.84;;;-1.82;83.10
50282;BME280;36176;51.506;10.272;2023-04-07T04:30:52;99478.28;;;-1.80;83.30
50282;BME280;36176;51.506;10.272;2023-04-07T04:33:19;99478.28;;;-1.81;83.03
50282;BME280;36176;51.506;10.272;2023-04-07T04:35:47;99479.16;;;-1.84;83.04
50282;BME280;36176;51.506;10.272;2023-04-07T04:38:15;99483.47;;;-1.86;84.65
50282;BME280;36176;51.506;10.272;2023-04-07T04:40:42;99481.75;;;-1.85;84.09
50282;BME280;36176;51.506;10.272;2023-04-07T04:43:09;99470.50;;;-1.86;85.00
50282;BME280;36176;51.506;10.272;2023-04-07T04:45:36;99480.91;;;-1.84;85.00
50282;BME280;36176;51.506;10.272;2023-04-07T04:48:03;99482.63;;;-1.83;83.21
50282;BME280;36176;51.506;10.272;2023-04-07T04:50:30;99485.22;;;-1.79;84.02
50282;BME280;36176;51.506;10.272;2023-04-07T04:52:57;99480.88;;;-1.80;84.54
50282;BME280;36176;51.506;10.272;2023-04-07T04:55:24;99477.41;;;-1.80;84.51
50282;BME280;36176;51.506;10.272;2023-04-07T04:57:51;99486.97;;;-1.76;84.66
50282;BME280;36176;51.506;10.272;2023-04-07T05:00:18;99485.25;;;-1.71;83.65
50282;BME280;36176;51.506;10.272;2023-04-07T05:02:45;99492.19;;;-1.64;83.51
50282;BME280;36176;51.506;10.272;2023-04-07T05:05:12;99493.91;;;-1.58;83.75
50282;BME280;36176;51.506;10.272;2023-04-07T05:07:40;99490.47;;;-1.54;84.34
50282;BME280;36176;51.506;10.272;2023-04-07T05:10:07;99485.28;;;-1.46;84.34
50282;BME280;36176;51.506;10.272;2023-04-07T05:12:35;99493.97;;;-1.37;83.50
50282;BME280;36176;51.506;10.272;2023-04-07T05:15:02;99497.44;;;-1.29;84.71
50282;BME280;36176;51.506;10.272;2023-04-07T05:17:29;99499.19;;;-1.14;83.64
50282;BME280;36176;51.506;10.272;2023-04-07T05:19:56;99490.53;;;-1.02;84.31
50282;BME280;36176;51.506;10.272;2023-04-07T05:22:23;99491.38;;;-0.88;83.65
50282;BME280;36176;51.506;10.272;2023-04-07T05:24:50;99493.09;;;-0.73;82.91
50282;BME280;36176;51.506;10.272;2023-04-07T05:27:17;99496.56;;;-0.52;83.18
50282;BME280;36176;51.506;10.272;2023-04-07T05:29:44;99501.72;;;-0.38;82.42
50282;BME280;36176;51.506;10.272;2023-04-07T05:32:11;99504.28;;;-0.23;82.87
50282;BME280;36176;51.506;10.272;2023-04-07T05:34:38;99501.66;;;-0.14;82.05
50282;BME280;36176;51.506;10.272;2023-04-07T05:37:05;99497.25;;;0.01;81.45
50282;BME280;36176;51.506;10.272;2023-04-07T05:39:32;99488.53;;;0.11;81.01
50282;BME280;36176;51.506;10.272;2023-04-07T05:41:59;99503.25;;;0.24;81.02
50282;BME280;36176;51.506;10.272;2023-04-07T05:44:27;99492.72;;;0.38;80.63
50282;BME280;36176;51.506;10.272;2023-04-07T05:46:54;99497.00;;;0.50;80.18
50282;BME280;36176;51.506;10.272;2023-04-07T05:49:21;99501.31;;;0.58;79.82
50282;BME280;36176;51.506;10.272;2023-04-07T05:51:48;99504.75;;;0.63;80.03
50282;BME280;36176;51.506;10.272;2023-04-07T05:54:15;99503.00;;;0.67;79.78
50282;BME280;36176;51.506;10.272;2023-04-07T05:56:42;99511.63;;;0.75;79.93
50282;BME280;36176;51.506;10.272;2023-04-07T05:59:09;99511.59;;;0.81;78.83
50282;BME280;36176;51.506;10.272;2023-04-07T06:01:36;99513.25;;;0.92;78.66
50282;BME280;36176;51.506;10.272;2023-04-07T06:04:03;99512.28;;;1.02;78.17
50282;BME280;36176;51.506;10.272;2023-04-07T06:06:30;99522.59;;;1.17;78.59
50282;BME280;36176;51.506;10.272;2023-04-07T06:08:57;99517.22;;;1.36;78.56
50282;BME280;36176;51.506;10.272;2023-04-07T06:11:25;99526.50;;;1.66;78.03
50282;BME280;36176;51.506;10.272;2023-04-07T06:13:52;99521.88;;;1.94;77.20
50282;BME280;36176;51.506;10.272;2023-04-07T06:16:19;99515.22;;;2.37;76.46
50282;BME280;36176;51.506;10.272;2023-04-07T06:18:47;99532.16;;;2.73;75.88
50282;BME280;36176;51.506;10.272;2023-04-07T06:21:14;99526.19;;;3.20;74.52
50282;BME280;36176;51.506;10.272;2023-04-07T06:23:41;99522.91;;;3.60;74.17
50282;BME280;36176;51.506;10.272;2023-04-07T06:26:11;99530.72;;;4.10;72.87
50282;BME280;36176;51.506;10.272;2023-04-07T06:28:39;99527.22;;;4.90;72.24
50282;BME280;36176;51.506;10.272;2023-04-07T06:31:07;99530.53;;;5.69;70.34
50282;BME280;36176;51.506;10.272;2023-04-07T06:33:34;99528.50;;;6.44;67.20
50282;BME280;36176;51.506;10.272;2023-04-07T06:36:02;99528.28;;;7.08;63.91
50282;BME280;36176;51.506;10.272;2023-04-07T06:38:29;99534.72;;;7.53;62.76
50282;BME280;36176;51.506;10.272;2023-04-07T06:40:56;99528.84;;;7.71;60.69
50282;BME280;36176;51.506;10.272;2023-04-07T06:43:23;99524.81;;;7.86;59.35
50282;BME280;36176;51.506;10.272;2023-04-07T06:45:49;99532.59;;;8.14;58.31
50282;BME280;36176;51.506;10.272;2023-04-07T06:48:17;99526.91;;;8.96;57.61
50282;BME280;36176;51.506;10.272;2023-04-07T06:50:50;99530.78;;;9.72;54.31
50282;BME280;36176;51.506;10.272;2023-04-07T06:53:17;99526.78;;;9.63;55.34
50282;BME280;36176;51.506;10.272;2023-04-07T06:55:44;99532.59;;;9.29;54.59
50282;BME280;36176;51.506;10.272;2023-04-07T06:58:11;99530.75;;;8.87;54.07
50282;BME280;36176;51.506;10.272;2023-04-07T07:00:38;99537.44;;;8.73;55.81
50282;BME280;36176;51.506;10.272;2023-04-07T07:03:05;99532.25;;;9.16;56.79
50282;BME280;36176;51.506;10.272;2023-04-07T07:05:32;99526.34;;;9.52;55.00
50282;BME280;36176;51.506;10.272;2023-04-07T07:07:59;99539.81;;;9.88;54.09
50282;BME280;36176;51.506;10.272;2023-04-07T07:10:26;99534.50;;;11.24;53.83
50282;BME280;36176;51.506;10.272;2023-04-07T07:12:53;99530.31;;;13.05;49.90
50282;BME280;36176;51.506;10.272;2023-04-07T07:15:20;99537.44;;;14.56;47.36
50282;BME280;36176;51.506;10.272;2023-04-07T07:17:48;99534.41;;;15.58;42.04
50282;BME280;36176;51.506;10.272;2023-04-07T07:20:14;99532.63;;;16.24;39.55
50282;BME280;36176;51.506;10.272;2023-04-07T07:22:41;99531.38;;;16.92;40.37
50282;BME280;36176;51.506;10.272;2023-04-07T07:25:08;99537.78;;;17.50;37.70
50282;BME280;36176;51.506;10.272;2023-04-07T07:27:35;99537.66;;;18.11;35.77
50282;BME280;36176;51.506;10.272;2023-04-07T07:30:02;99543.81;;;18.58;35.15
50282;BME280;36176;51.506;10.272;2023-04-07T07:32:29;99531.75;;;18.75;34.28
50282;BME280;36176;51.506;10.272;2023-04-07T07:34:56;99543.22;;;18.88;34.50
50282;BME280;36176;51.506;10.272;2023-04-07T07:37:23;99541.81;;;18.26;33.86
50282;BME280;36176;51.506;10.272;2023-04-07T07:39:50;99543.59;;;17.68;36.11
50282;BME280;36176;51.506;10.272;2023-04-07T07:42:17;99549.72;;;18.05;35.67
50282;BME280;36176;51.506;10.272;2023-04-07T07:44:44;99541.34;;;18.55;34.12
50282;BME280;36176;51.506;10.272;2023-04-07T07:47:10;99544.16;;;18.31;32.04
50282;BME280;36176;51.506;10.272;2023-04-07T07:49:38;99536.13;;;18.65;34.00
50282;BME280;36176;51.506;10.272;2023-04-07T07:52:05;99541.38;;;18.89;34.44
50282;BME280;36176;51.506;10.272;2023-04-07T07:54:33;99543.00;;;19.67;32.75
50282;BME280;36176;51.506;10.272;2023-04-07T07:56:59;99544.72;;;20.22;31.37
50282;BME280;36176;51.506;10.272;2023-04-07T07:59:29;99551.50;;;20.68;30.88
50282;BME280;36176;51.506;10.272;2023-04-07T08:01:56;99547.34;;;20.94;30.30
50282;BME280;36176;51.506;10.272;2023-04-07T08:04:23;99547.00;;;20.78;30.75
50282;BME280;36176;51.506;10.272;2023-04-07T08:06:50;99550.81;;;20.75;29.40
50282;BME280;36176;51.506;10.272;2023-04-07T08:09:18;99552.44;;;19.94;30.46
50282;BME280;36176;51.506;10.272;2023-04-07T08:11:45;99550.72;;;19.72;31.20
50282;BME280;36176;51.506;10.272;2023-04-07T08:14:14;99545.50;;;20.33;30.20
50282;BME280;36176;51.506;10.272;2023-04-07T08:16:41;99551.56;;;21.28;29.31
50282;BME280;36176;51.506;10.272;2023-04-07T08:19:08;99545.50;;;21.45;28.56
50282;BME280;36176;51.506;10.272;2023-04-07T08:21:35;99551.63;;;21.47;28.80
50282;BME280;36176;51.506;10.272;2023-04-07T08:24:02;99543.22;;;22.28;30.29
50282;BME280;36176;51.506;10.272;2023-04-07T08:26:29;99543.41;;;22.64;27.91
50282;BME280;36176;51.506;10.272;2023-04-07T08:28:55;99545.13;;;22.55;27.62
50282;BME280;36176;51.506;10.272;2023-04-07T08:31:24;99543.41;;;21.68;26.73
50282;BME280;36176;51.506;10.272;2023-04-07T08:33:51;99545.06;;;20.90;28.30
50282;BME280;36176;51.506;10.272;2023-04-07T08:36:24;99551.25;;;20.80;28.58
50282;BME280;36176;51.506;10.272;2023-04-07T08:38:51;99555.75;;;19.97;28.46
50282;BME280;36176;51.506;10.272;2023-04-07T08:41:23;99553.56;;;19.16;29.51
50282;BME280;36176;51.506;10.272;2023-04-07T08:43:52;99549.63;;;19.63;31.11
50282;BME280;36176;51.506;10.272;2023-04-07T08:46:20;99553.00;;;20.81;29.63
50282;BME280;36176;51.506;10.272;2023-04-07T08:48:47;99543.56;;;20.66;27.74
50282;BME280;36176;51.506;10.272;2023-04-07T08:51:18;99543.56;;;20.66;29.33
50282;BME280;36176;51.506;10.272;2023-04-07T08:53:48;99550.66;;;21.77;29.46
50282;BME280;36176;51.506;10.272;2023-04-07T08:56:16;99547.75;;;22.84;27.19
50282;BME280;36176;51.506;10.272;2023-04-07T08:58:43;99548.19;;;22.80;25.62
50282;BME280;36176;51.506;10.272;2023-04-07T09:01:10;99550.56;;;23.20;26.19
50282;BME280;36176;51.506;10.272;2023-04-07T09:03:37;99549.47;;;23.59;24.97
50282;BME280;36176;51.506;10.272;2023-04-07T09:06:05;99553.25;;;22.45;23.10
50282;BME280;36176;51.506;10.272;2023-04-07T09:08:32;99547.81;;;21.98;23.61
50282;BME280;36176;51.506;10.272;2023-04-07T09:10:59;99548.00;;;21.17;24.34
50282;BME280;36176;51.506;10.272;2023-04-07T09:13:25;99550.00;;;21.25;24.58
50282;BME280;36176;51.506;10.272;2023-04-07T09:15:52;99551.94;;;21.13;24.48
50282;BME280;36176;51.506;10.272;2023-04-07T09:18:19;99547.16;;;21.17;23.91
50282;BME280;36176;51.506;10.272;2023-04-07T09:21:03;99551.88;;;20.84;23.39
50282;BME280;36176;51.506;10.272;2023-04-07T09:23:31;99545.00;;;20.18;25.11
50282;BME280;36176;51.506;10.272;2023-04-07T09:25:58;99550.50;;;19.96;24.72
50282;BME280;36176;51.506;10.272;2023-04-07T09:28:39;99541.06;;;20.02;24.16
50282;BME280;36176;51.506;10.272;2023-04-07T09:31:06;99544.69;;;19.47;24.89
50282;BME280;36176;51.506;10.272;2023-04-07T09:33:33;99543.22;;;19.43;25.96
50282;BME280;36176;51.506;10.272;2023-04-07T09:36:02;99543.53;;;19.18;25.30
50282;BME280;36176;51.506;10.272;2023-04-07T09:38:32;99541.38;;;19.00;25.78
50282;BME280;36176;51.506;10.272;2023-04-07T09:41:10;99538.34;;;18.82;25.91
50282;BME280;36176;51.506;10.272;2023-04-07T09:43:38;99546.00;;;18.42;26.65
50282;BME280;36176;51.506;10.272;2023-04-07T09:46:12;99534.19;;;18.44;26.89
50282;BME280;36176;51.506;10.272;2023-04-07T09:48:39;99541.88;;;18.49;27.38
50282;BME280;36176;51.506;10.272;2023-04-07T09:53:51;99532.69;;;18.18;27.74
50282;BME280;36176;51.506;10.272;2023-04-07T09:56:19;99532.13;;;17.90;26.94
50282;BME280;36176;51.506;10.272;2023-04-07T09:58:48;99531.88;;;17.93;26.92
50282;BME280;36176;51.506;10.272;2023-04-07T10:01:17;99531.22;;;18.25;28.78
50282;BME280;36176;51.506;10.272;2023-04-07T10:03:44;99534.03;;;18.35;27.66
50282;BME280;36176;51.506;10.272;2023-04-07T10:06:13;99533.78;;;18.38;28.05
50282;BME280;36176;51.506;10.272;2023-04-07T10:08:40;99537.56;;;18.24;26.98
50282;BME280;36176;51.506;10.272;2023-04-07T10:11:08;99537.78;;;17.50;27.45
50282;BME280;36176;51.506;10.272;2023-04-07T10:13:36;99538.31;;;17.31;27.81
50282;BME280;36176;51.506;10.272;2023-04-07T10:16:05;99529.47;;;17.18;27.48
50282;BME280;36176;51.506;10.272;2023-04-07T10:18:33;99535.25;;;17.12;28.79
50282;BME280;36176;51.506;10.272;2023-04-07T10:21:01;99529.66;;;16.91;28.66
50282;BME280;36176;51.506;10.272;2023-04-07T10:26:15;99536.53;;;16.56;28.46
50282;BME280;36176;51.506;10.272;2023-04-07T10:28:45;99534.09;;;16.28;29.96
50282;BME280;36176;51.506;10.272;2023-04-07T10:31:13;99535.88;;;16.02;28.53
50282;BME280;36176;51.506;10.272;2023-04-07T10:33:50;99534.13;;;15.75;30.05
50282;BME280;36176;51.506;10.272;2023-04-07T10:36:18;99528.91;;;15.73;29.25
50282;BME280;36176;51.506;10.272;2023-04-07T10:41:32;99534.06;;;15.49;31.27
50282;BME280;36176;51.506;10.272;2023-04-07T10:44:03;99537.31;;;15.67;29.94
50282;BME280;36176;51.506;10.272;2023-04-07T10:49:13;99532.81;;;15.95;30.01
50282;BME280;36176;51.506;10.272;2023-04-07T10:51:42;99538.03;;;15.97;30.58
50282;BME280;36176;51.506;10.272;2023-04-07T10:54:18;99533.66;;;15.95;30.59
50282;BME280;36176;51.506;10.272;2023-04-07T10:59:29;99533.66;;;15.95;29.56
50282;BME280;36176;51.506;10.272;2023-04-07T11:02:28;58343.00;;;-145.31;100.00
50282;BME280;36176;51.506;10.272;2023-04-07T11:04:45;58343.00;;;-145.31;100.00
50282;BME280;36176;51.506;10.272;2023-04-07T11:07:15;58343.00;;;-145.31;100.00
50282;BME280;36176;51.506;10.272;2023-04-07T11:09:42;58343.00;;;-145.31;100.00
50282;BME280;36176;51.506;10.272;2023-04-07T11:12:22;58343.00;;;-145.31;100.00
50282;BME280;36176;51.506;10.272;2023-04-07T11:14:49;58343.00;;;-145.31;100.00
50282;BME280;36176;51.506;10.272;2023-04-07T11:17:16;58343.00;;;-145.31;100.00
50282;BME280;36176;51.506;10.272;2023-04-07T11:19:49;58343.00;;;-145.31;100.00
50282;BME280;36176;51.506;10.272;2023-04-07T11:22:16;58343.00;;;-145.31;100.00
50282;BME280;36176;51.506;10.272;2023-04-07T11:24:55;58343.00;;;-145.31;100.00
50282;BME280;36176;51.506;10.272;2023-04-07T11:27:22;58343.00;;;-145.31;100.00
50282;BME280;36176;51.506;10.272;2023-04-07T11:29:52;58343.00;;;-145.31;100.00
50282;BME280;36176;51.506;10.272;2023-04-07T11:32:22;58343.00;;;-145.31;100.00
50282;BME280;36176;51.506;10.272;2023-04-07T11:34:55;58343.00;;;-145.31;100.00
50282;BME280;36176;51.506;10.272;2023-04-07T11:37:23;58343.00;;;-145.31;100.00
50282;BME280;36176;51.506;10.272;2023-04-07T11:39:57;58343.00;;;-145.31;100.00
50282;BME280;36176;51.506;10.272;2023-04-07T11:42:42;58343.00;;;-145.31;100.00
50282;BME280;36176;51.506;10.272;2023-04-07T11:45:15;58343.00;;;-145.31;100.00
50282;BME280;36176;51.506;10.272;2023-04-07T11:47:42;58343.00;;;-145.31;100.00
50282;BME280;36176;51.506;10.272;2023-04-07T11:50:10;58343.00;;;-145.31;100.00
50282;BME280;36176;51.506;10.272;2023-04-07T11:52:46;58343.00;;;-145.31;100.00
50282;BME280;36176;51.506;10.272;2023-04-07T11:55:16;58343.00;;;-145.31;100.00
50282;BME280;36176;51.506;10.272;2023-04-07T11:57:46;58343.00;;;-145.31;100.00
50282;BME280;36176;51.506;10.272;2023-04-07T12:00:13;58343.00;;;-145.31;100.00
50282;BME280;36176;51.506;10.272;2023-04-07T12:02:41;58343.00;;;-145.31;100.00
50282;BME280;36176;51.506;10.272;2023-04-07T12:05:08;58343.00;;;-145.31;100.00
50282;BME280;36176;51.506;10.272;2023-04-07T12:07:36;58343.00;;;-145.31;100.00
50282;BME280;36176;51.506;10.272;2023-04-07T12:10:22;58343.00;;;-145.31;100.00
50282;BME280;36176;51.506;10.272;2023-04-07T12:12:52;58343.00;;;-145.31;100.00
50282;BME280;36176;51.506;10.272;2023-04-07T12:15:19;58343.00;;;-145.31;100.00
50282;BME280;36176;51.506;10.272;2023-04-07T12:17:46;58343.00;;;-145.31;100.00
50282;BME280;36176;51.506;10.272;2023-04-07T12:20:14;58343.00;;;-145.31;100.00
50282;BME280;36176;51.506;10.272;2023-04-07T12:22:41;58343.00;;;-145.31;100.00
50282;BME280;36176;51.506;10.272;2023-04-07T12:25:08;58343.00;;;-145.31;100.00
50282;BME280;36176;51.506;10.272;2023-04-07T12:27:35;58343.00;;;-145.31;100.00
50282;BME280;36176;51.506;10.272;2023-04-07T12:30:09;58343.00;;;-145.31;100.00
50282;BME280;36176;51.506;10.272;2023-04-07T12:32:36;58343.00;;;-145.31;100.00
50282;BME280;36176;51.506;10.272;2023-04-07T12:35:04;58343.00;;;-145.31;100.00
50282;BME280;36176;51.506;10.272;2023-04-07T12:37:31;58343.00;;;-145.31;100.00
50282;BME280;36176;51.506;10.272;2023-04-07T12:39:58;58343.00;;;-145.31;100.00
50282;BME280;36176;51.506;10.272;2023-04-07T12:42:25;58343.00;;;-145.31;100.00
50282;BME280;36176;51.506;10.272;2023-04-07T12:44:52;58343.00;;;-145.31;100.00
50282;BME280;36176;51.506;10.272;2023-04-07T12:47:19;58343.00;;;-145.31;100.00
50282;BME280;36176;51.506;10.272;2023-04-07T12:49:46;58343.00;;;-145.31;100.00
50282;BME280;36176;51.506;10.272;2023-04-07T12:52:15;58343.00;;;-145.31;100.00
50282;BME280;36176;51.506;10.272;2023-04-07T12:54:42;58343.00;;;-145.31;100.00
50282;BME280;36176;51.506;10.272;2023-04-07T12:57:10;58343.00;;;-145.31;100.00
50282;BME280;36176;51.506;10.272;2023-04-07T12:59:38;58343.00;;;-145.31;100.00
50282;BME280;36176;51.506;10.272;2023-04-07T13:02:05;58343.00;;;-145.31;100.00
50282;BME280;36176;51.506;10.272;2023-04-07T13:04:32;58343.00;;;-145.31;100.00
50282;BME280;36176;51.506;10.272;2023-04-07T13:07:00;58343.00;;;-145.31;100.00
50282;BME280;36176;51.506;10.272;2023-04-07T13:09:28;58343.00;;;-145.31;100.00
50282;BME280;36176;51.506;10.272;2023-04-07T13:11:55;58343.00;;;-145.31;100.00